LEBB

Bilbao Airport

Airport
ICAO code
LEBB
Summary
ICAO Region
EUR
ICAO Territory
Location

Bilbao, Spain,

Coordinates
43° 18' 9" N , 2° 54' 40" W
KCC
Cfb
Airport WX
Low Level Turbulence
Metar
Observation
LEBB 110300Z 06004KT 030V100 9999 FEW070 23/21 Q1013 NOSIG
Station
Bilbao / Sondica
Date/Time
2022-08-11 03:00:00
Wind direction
60°
Wind speed
04 kts
Lowest cloud amount
few clouds
Temperature
23°C
Dew point
21°C
Humidity
88%
QNH
1013 hPa
Weather condition
n/a

Description

International airport serving city of Bilbao.

Climatology

Temperate Marine climate/Oceanic climate (Köppen climate classification Cfb). Moderately cool summer and comparatively warm winter with a temperature range of only 14°C. Prevailing south-westerly winds from the Atlantic Ocean.

Runways

Designator Length Width Surface Rops
10/28 2000 45 ASP Yes/Yes
12/30 2600 45 ASP Yes/Yes

Airport map

Aerial View

Airport accidents

SKYbrary Partners:

Safety knowledge contributed by: